Time;durP1;ratioP1;P1;durP2;ratioP2;P2;SDS_P1;SDS_P2;PMS_P1;PMS_P2;Temp;Humidity;BMP_temperature;BMP_pressure;BME280_temperature;BME280_humidity;BME280_pressure;Samples;Min_cycle;Max_cycle;Signal;HPM_P1;HPM_P2
2022/03/11 00:00:13;;;;;;;4.07;3.25;;;17.40;35.40;16.50;101753.00;;;;5037518;28;20037;-64
2022/03/11 00:03:00;;;;;;;5.18;3.05;;;17.40;35.40;16.40;101755.00;;;;5054469;28;20167;-65
2022/03/11 00:05:46;;;;;;;4.45;3.10;;;17.40;35.40;16.40;101756.00;;;;5053763;28;20051;-65
2022/03/11 00:08:32;;;;;;;4.68;2.88;;;17.40;35.40;16.40;101744.00;;;;5057053;28;20041;-65
2022/03/11 00:11:18;;;;;;;3.45;2.78;;;17.40;35.50;16.40;101745.00;;;;5051649;28;20040;-65
2022/03/11 00:14:04;;;;;;;5.38;3.20;;;17.40;35.40;16.40;101752.00;;;;5038663;28;20056;-64
2022/03/11 00:16:50;;;;;;;5.25;3.35;;;17.40;35.40;16.40;101750.00;;;;5055003;28;20485;-65
2022/03/11 00:19:36;;;;;;;5.38;3.00;;;17.40;35.40;16.40;101753.00;;;;5050168;28;20036;-65
2022/03/11 00:22:22;;;;;;;6.72;3.45;;;17.40;35.50;16.40;101751.00;;;;5044268;28;20049;-65
2022/03/11 00:25:09;;;;;;;3.85;2.95;;;17.40;35.50;16.40;101748.00;;;;5055169;28;20052;-65
2022/03/11 00:27:55;;;;;;;4.68;2.92;;;17.40;35.50;16.40;101745.00;;;;5054996;28;20485;-65
2022/03/11 00:30:41;;;;;;;4.82;2.67;;;17.40;35.50;16.40;101753.00;;;;5043937;28;20047;-65
2022/03/11 00:33:27;;;;;;;5.93;3.05;;;17.40;35.50;16.40;101752.00;;;;5044969;28;20040;-65
2022/03/11 00:36:13;;;;;;;5.50;3.17;;;17.40;35.60;16.40;101751.00;;;;5056473;28;20460;-65
2022/03/11 00:38:59;;;;;;;4.63;2.88;;;17.40;35.60;16.40;101746.00;;;;5041083;28;20137;-65
2022/03/11 00:41:46;;;;;;;4.65;3.05;;;17.40;35.60;16.40;101750.00;;;;5055623;28;20550;-65
2022/03/11 00:44:32;;;;;;;4.43;3.08;;;17.40;35.60;16.40;101754.00;;;;5047779;28;20093;-64
2022/03/11 00:47:18;;;;;;;4.65;3.20;;;17.50;35.70;16.40;101745.00;;;;5054545;28;20567;-65
2022/03/11 00:50:05;;;;;;;5.20;3.08;;;17.40;35.60;16.40;101751.00;;;;5060299;28;20497;-64
2022/03/11 00:52:52;;;;;;;4.53;3.15;;;17.40;35.60;16.40;101745.00;;;;5056751;28;20047;-65
2022/03/11 00:55:38;;;;;;;5.13;2.92;;;17.40;35.70;16.40;101740.00;;;;5046366;28;20055;-65
2022/03/11 00:58:24;;;;;;;5.68;3.10;;;17.40;35.60;16.40;101740.00;;;;5060976;28;20044;-65
2022/03/11 01:01:10;;;;;;;4.72;3.03;;;17.40;35.60;16.40;101741.00;;;;5042172;28;20028;-65
2022/03/11 01:03:56;;;;;;;4.60;3.15;;;17.40;35.60;16.40;101738.00;;;;5058473;28;20040;-65
2022/03/11 01:06:42;;;;;;;5.63;3.35;;;17.40;35.60;16.40;101737.00;;;;5058498;28;20040;-65
2022/03/11 01:09:28;;;;;;;5.28;3.42;;;17.40;35.70;16.40;101727.00;;;;5060974;28;20554;-65
2022/03/11 01:12:14;;;;;;;4.63;3.17;;;17.30;35.60;16.40;101726.00;;;;5058385;28;20049;-65
2022/03/11 01:15:00;;;;;;;5.03;3.70;;;17.30;35.60;16.40;101728.00;;;;5055561;28;20496;-65
2022/03/11 01:17:46;;;;;;;5.10;3.35;;;17.30;35.60;16.40;101729.00;;;;5045878;28;20122;-65
2022/03/11 01:20:32;;;;;;;4.40;2.78;;;17.40;35.70;16.40;101715.00;;;;5040822;28;20041;-65
2022/03/11 01:23:18;;;;;;;5.38;3.50;;;17.30;35.60;16.40;101722.00;;;;5056594;28;20044;-65
2022/03/11 01:26:04;;;;;;;8.88;3.72;;;17.30;35.60;16.40;101718.00;;;;5054501;28;20048;-65
2022/03/11 01:28:51;;;;;;;6.00;3.67;;;17.40;35.70;16.40;101728.00;;;;5055232;28;20044;-64
2022/03/11 01:31:37;;;;;;;5.47;3.10;;;17.40;35.70;16.40;101722.00;;;;5058377;28;20036;-65
2022/03/11 01:34:23;;;;;;;6.10;3.55;;;17.30;35.70;16.40;101725.00;;;;5055949;28;20048;-65
2022/03/11 01:37:09;;;;;;;4.88;3.28;;;17.30;35.60;16.40;101723.00;;;;5056975;28;20113;-65
2022/03/11 01:39:55;;;;;;;4.97;3.63;;;17.30;35.70;16.40;101713.00;;;;5051571;28;20040;-65
2022/03/11 01:42:42;;;;;;;6.72;3.78;;;17.40;35.70;16.40;101717.00;;;;5055281;28;20074;-65
2022/03/11 01:45:28;;;;;;;5.18;3.30;;;17.40;35.70;16.40;101713.00;;;;5056650;28;20055;-64
2022/03/11 01:48:14;;;;;;;6.00;3.80;;;17.40;35.80;16.40;101708.00;;;;5056460;28;20079;-65
2022/03/11 01:51:00;;;;;;;5.18;3.72;;;17.30;35.70;16.40;101701.00;;;;5040123;28;20403;-65
2022/03/11 01:53:46;;;;;;;4.78;3.42;;;17.30;35.70;16.40;101696.00;;;;5037583;28;20040;-65
2022/03/11 01:56:32;;;;;;;3.75;3.20;;;17.30;35.70;16.40;101691.00;;;;5040946;28;20041;-65
2022/03/11 01:59:18;;;;;;;6.32;3.90;;;17.30;35.70;16.40;101688.00;;;;5053816;28;20444;-65
2022/03/11 02:02:05;;;;;;;7.15;3.80;;;17.40;35.80;16.40;101690.00;;;;5025611;28;20053;-65
2022/03/11 02:04:51;;;;;;;4.65;3.42;;;17.30;35.70;16.40;101684.00;;;;5039344;28;20083;-65
2022/03/11 02:07:37;;;;;;;5.25;3.95;;;17.30;35.70;16.40;101673.00;;;;5054950;28;20379;-65
2022/03/11 02:10:23;;;;;;;6.05;3.88;;;17.30;35.70;16.40;101681.00;;;;5055426;28;20049;-65
2022/03/11 02:13:09;;;;;;;5.50;3.72;;;17.30;35.80;16.40;101674.00;;;;5042338;28;20458;-65
2022/03/11 02:15:55;;;;;;;5.90;3.85;;;17.30;35.80;16.40;101672.00;;;;5053208;28;20033;-65
2022/03/11 02:18:42;;;;;;;5.78;3.50;;;17.40;35.90;16.40;101670.00;;;;5039379;28;20446;-65
2022/03/11 02:21:28;;;;;;;5.82;3.75;;;17.30;35.80;16.40;101664.00;;;;5040875;28;20044;-65
2022/03/11 02:24:14;;;;;;;5.78;3.63;;;17.30;35.80;16.40;101671.00;;;;5055925;28;20049;-65
2022/03/11 02:27:00;;;;;;;5.53;3.80;;;17.30;35.80;16.40;101662.00;;;;5038308;28;20045;-65
2022/03/11 02:29:46;;;;;;;7.10;3.80;;;17.30;35.80;16.40;101662.00;;;;5053616;28;20040;-65
2022/03/11 02:32:32;;;;;;;4.97;3.83;;;17.40;35.80;16.40;101654.00;;;;5053853;28;20045;-64
2022/03/11 02:35:20;;;;;;;7.18;3.97;;;17.30;35.70;16.40;101659.00;;;;5053367;28;20049;-65
2022/03/11 02:38:06;;;;;;;6.75;3.80;;;17.30;35.80;16.40;101658.00;;;;5033711;28;20075;-65
2022/03/11 02:40:52;;;;;;;5.93;3.92;;;17.30;35.80;16.40;101646.00;;;;5054721;28;20573;-65
2022/03/11 02:43:41;;;;;;;5.53;3.92;;;17.30;35.80;16.40;101656.00;;;;5037303;28;20414;-64
2022/03/11 02:46:27;;;;;;;5.53;3.85;;;17.30;35.80;16.40;101654.00;;;;5051517;28;20045;-65
2022/03/11 02:49:13;;;;;;;5.32;3.78;;;17.30;35.80;16.40;101639.00;;;;5054196;28;20040;-65
2022/03/11 02:51:59;;;;;;;5.72;3.83;;;17.30;35.90;16.40;101645.00;;;;5057843;28;20052;-65
2022/03/11 02:54:45;;;;;;;6.70;3.67;;;17.30;35.80;16.40;101637.00;;;;5048767;28;20090;-65
2022/03/11 02:57:31;;;;;;;5.25;4.07;;;17.30;35.80;16.40;101640.00;;;;5034990;28;20461;-65
2022/03/11 03:00:18;;;;;;;5.63;3.97;;;17.30;35.80;16.40;101637.00;;;;5054417;28;20041;-65
2022/03/11 03:03:04;;;;;;;6.13;4.00;;;17.30;35.80;16.40;101636.00;;;;5040818;28;20343;-65
2022/03/11 03:05:50;;;;;;;7.25;4.55;;;17.30;35.80;16.40;101633.00;;;;5060191;28;20232;-65
2022/03/11 03:08:36;;;;;;;4.78;3.60;;;17.20;35.70;16.40;101624.00;;;;5050889;28;20036;-65
2022/03/11 03:11:22;;;;;;;5.07;3.58;;;17.30;35.80;16.40;101628.00;;;;5049279;28;20526;-65
2022/03/11 03:14:08;;;;;;;5.70;3.90;;;17.30;35.80;16.40;101634.00;;;;5050203;28;20045;-65
2022/03/11 03:16:54;;;;;;;7.30;4.65;;;17.30;35.80;16.40;101617.00;;;;5055524;28;20563;-65
2022/03/11 03:19:40;;;;;;;5.68;3.95;;;17.30;35.80;16.30;101617.00;;;;5055580;28;20043;-64
2022/03/11 03:22:26;;;;;;;5.15;3.90;;;17.20;35.80;16.30;101618.00;;;;5056295;28;20160;-65
2022/03/11 03:25:12;;;;;;;6.78;4.22;;;17.30;35.80;16.30;101614.00;;;;5053257;28;20056;-65
2022/03/11 03:27:59;;;;;;;6.35;4.22;;;17.30;35.80;16.30;101613.00;;;;5054753;28;20119;-65
2022/03/11 03:30:45;;;;;;;5.82;4.15;;;17.20;35.80;16.30;101605.00;;;;5041365;28;20468;-65
2022/03/11 03:33:31;;;;;;;6.50;3.75;;;17.30;35.80;16.30;101601.00;;;;5049712;28;20098;-65
2022/03/11 03:36:17;;;;;;;7.13;4.10;;;17.20;35.80;16.30;101591.00;;;;5038839;28;20048;-65
2022/03/11 03:39:03;;;;;;;5.57;3.75;;;17.30;35.90;16.30;101606.00;;;;5051211;28;20048;-65
2022/03/11 03:41:49;;;;;;;7.13;4.18;;;17.30;35.90;16.30;101603.00;;;;5052314;28;20049;-65
2022/03/11 03:44:35;;;;;;;6.07;4.20;;;17.30;35.90;16.30;101593.00;;;;5037997;28;20044;-65
2022/03/11 03:47:21;;;;;;;6.28;4.13;;;17.30;35.90;16.30;101600.00;;;;5059384;28;20048;-65
2022/03/11 03:50:08;;;;;;;6.97;4.40;;;17.20;35.80;16.30;101600.00;;;;5056472;28;20479;-65
2022/03/11 03:52:54;;;;;;;7.25;4.63;;;17.20;35.80;16.30;101606.00;;;;5059667;28;20040;-65
2022/03/11 03:55:40;;;;;;;7.05;4.63;;;17.20;35.80;16.30;101593.00;;;;5051852;28;20413;-64
2022/03/11 03:58:26;;;;;;;7.30;5.03;;;17.20;35.80;16.30;101587.00;;;;5051295;28;20047;-65
2022/03/11 04:01:12;;;;;;;6.75;4.20;;;17.20;35.80;16.30;101590.00;;;;5048903;28;20053;-65
2022/03/11 04:03:58;;;;;;;7.43;4.78;;;17.20;35.90;16.30;101587.00;;;;5052040;28;20041;-64
2022/03/11 04:06:44;;;;;;;8.25;4.30;;;17.20;35.80;16.30;101582.00;;;;5055894;28;20797;-65
2022/03/11 04:09:30;;;;;;;6.47;4.78;;;17.20;35.80;16.30;101592.00;;;;5057901;28;20048;-65
2022/03/11 04:12:16;;;;;;;6.68;4.72;;;17.20;35.90;16.30;101580.00;;;;5056240;28;20041;-65
2022/03/11 04:15:03;;;;;;;8.43;4.65;;;17.20;35.90;16.30;101579.00;;;;5053599;28;20052;-65
2022/03/11 04:17:49;;;;;;;6.82;4.43;;;17.20;35.90;16.30;101577.00;;;;5046883;28;20045;-65
2022/03/11 04:20:35;;;;;;;6.80;4.97;;;17.20;35.90;16.30;101574.00;;;;5055530;28;20044;-65
2022/03/11 04:23:21;;;;;;;6.82;3.90;;;17.20;35.90;16.30;101570.00;;;;5055919;28;20029;-65
2022/03/11 04:26:07;;;;;;;6.88;4.30;;;17.20;36.00;16.30;101576.00;;;;5052537;28;20418;-66
2022/03/11 04:28:53;;;;;;;6.30;4.30;;;17.20;35.90;16.30;101575.00;;;;5056037;28;20049;-65
2022/03/11 04:31:40;;;;;;;6.93;4.30;;;17.20;35.90;16.30;101575.00;;;;5054876;28;20447;-65
2022/03/11 04:34:26;;;;;;;6.97;4.30;;;17.20;35.90;16.30;101566.00;;;;5040215;28;20122;-65
2022/03/11 04:37:12;;;;;;;7.03;4.90;;;17.20;35.90;16.30;101571.00;;;;5056474;28;20197;-64
2022/03/11 04:40:01;;;;;;;6.30;4.40;;;17.20;35.90;16.30;101570.00;;;;5040747;28;20064;-65
2022/03/11 04:42:47;;;;;;;7.03;4.38;;;17.20;35.90;16.30;101570.00;;;;5057625;28;20086;-65
2022/03/11 04:45:33;;;;;;;7.07;4.78;;;17.20;35.90;16.30;101570.00;;;;5057052;28;21125;-65
2022/03/11 04:48:19;;;;;;;9.25;5.30;;;17.10;35.80;16.30;101558.00;;;;5054872;28;20045;-65
2022/03/11 04:51:05;;;;;;;7.10;4.65;;;17.10;35.80;16.20;101555.00;;;;5054514;28;20052;-65
2022/03/11 04:53:51;;;;;;;6.88;4.97;;;17.10;35.80;16.20;101551.00;;;;5057033;28;20041;-64
2022/03/11 04:56:37;;;;;;;8.55;5.05;;;17.10;35.80;16.20;101557.00;;;;5045544;28;20036;-64
2022/03/11 04:59:23;;;;;;;7.00;4.72;;;17.10;35.80;16.20;101549.00;;;;5053098;28;20037;-65
2022/03/11 05:02:10;;;;;;;7.80;4.93;;;17.10;35.80;16.20;101545.00;;;;5044284;28;20041;-65
2022/03/11 05:04:56;;;;;;;7.03;4.95;;;17.10;35.80;16.20;101548.00;;;;5040741;28;20045;-65
2022/03/11 05:07:42;;;;;;;8.70;5.53;;;17.10;35.80;16.20;101543.00;;;;5057397;28;20045;-65
2022/03/11 05:10:28;;;;;;;8.15;5.00;;;17.10;35.90;16.20;101550.00;;;;5054495;28;20056;-65
2022/03/11 05:13:14;;;;;;;8.00;5.07;;;17.10;35.90;16.20;101554.00;;;;5053132;28;20025;-65
2022/03/11 05:16:00;;;;;;;7.20;5.15;;;17.10;35.90;16.20;101553.00;;;;5057390;28;20041;-65
2022/03/11 05:18:47;;;;;;;7.35;5.20;;;17.10;35.90;16.20;101560.00;;;;5040329;28;20036;-65
2022/03/11 05:21:33;;;;;;;8.45;5.20;;;17.10;35.90;16.20;101564.00;;;;5055615;28;20098;-65
2022/03/11 05:24:19;;;;;;;6.95;4.88;;;17.10;35.90;16.20;101566.00;;;;5052349;28;20044;-64
2022/03/11 05:27:05;;;;;;;8.20;5.35;;;17.10;35.80;16.20;101553.00;;;;5054103;28;20059;-65
2022/03/11 05:29:51;;;;;;;7.82;5.00;;;17.10;35.90;16.20;101564.00;;;;5042075;28;20628;-65
2022/03/11 05:32:42;;;;;;;6.95;5.07;;;17.10;35.90;16.20;101566.00;;;;5054204;28;20045;-64
2022/03/11 05:35:28;;;;;;;7.78;5.20;;;17.10;35.90;16.20;101560.00;;;;5041752;28;20048;-64
2022/03/11 05:38:15;;;;;;;7.75;5.43;;;17.10;35.90;16.20;101558.00;;;;5041430;28;20398;-65
2022/03/11 05:41:01;;;;;;;8.35;5.20;;;17.10;35.90;16.20;101552.00;;;;5049286;28;20535;-64
2022/03/11 05:43:47;;;;;;;8.27;5.45;;;17.10;35.90;16.20;101556.00;;;;5061085;28;20040;-65
2022/03/11 05:46:33;;;;;;;9.25;5.60;;;17.10;35.90;16.20;101552.00;;;;5057052;28;20040;-65
2022/03/11 05:49:22;;;;;;;7.25;5.07;;;17.10;35.90;16.20;101551.00;;;;5055699;28;20099;-65
2022/03/11 05:52:08;;;;;;;7.18;5.25;;;17.00;35.90;16.20;101555.00;;;;5044058;28;20079;-64
2022/03/11 05:54:54;;;;;;;6.75;5.25;;;17.00;35.90;16.20;101546.00;;;;5040127;28;20040;-64
2022/03/11 05:57:40;;;;;;;7.20;4.88;;;17.10;35.90;16.20;101550.00;;;;5059413;28;20066;-64
2022/03/11 06:00:26;;;;;;;8.18;5.50;;;17.00;35.90;16.20;101552.00;;;;5057288;28;20040;-65
2022/03/11 06:03:13;;;;;;;8.45;5.40;;;17.00;35.90;16.20;101540.00;;;;5054435;28;20048;-65
2022/03/11 06:05:59;;;;;;;8.95;5.60;;;17.00;35.90;16.20;101543.00;;;;5055964;28;20044;-65
2022/03/11 06:08:45;;;;;;;7.90;4.88;;;17.00;35.90;16.20;101533.00;;;;5054523;28;20051;-64
2022/03/11 06:11:31;;;;;;;7.80;5.35;;;17.00;35.90;16.20;101533.00;;;;5055455;28;20045;-65
2022/03/11 06:14:17;;;;;;;8.50;5.40;;;17.00;35.90;16.20;101530.00;;;;5054734;28;20385;-64
2022/03/11 06:17:04;;;;;;;6.03;4.93;;;17.00;35.90;16.10;101526.00;;;;5062467;28;20047;-65
2022/03/11 06:19:50;;;;;;;7.75;4.93;;;17.00;35.90;16.10;101532.00;;;;5048473;28;20048;-65
2022/03/11 06:22:36;;;;;;;8.82;5.25;;;17.00;35.90;16.10;101522.00;;;;5057214;28;20036;-65
2022/03/11 06:25:22;;;;;;;7.07;5.28;;;17.00;35.90;16.10;101523.00;;;;5052787;28;20396;-64
2022/03/11 06:28:08;;;;;;;7.15;5.28;;;17.00;35.90;16.10;101526.00;;;;5057547;28;20064;-65
2022/03/11 06:30:54;;;;;;;9.20;5.25;;;17.00;35.90;16.10;101524.00;;;;5032490;28;20932;-64
2022/03/11 06:33:41;;;;;;;8.32;5.32;;;17.00;35.90;16.10;101522.00;;;;5056984;28;20045;-65
2022/03/11 06:36:28;;;;;;;7.45;5.38;;;17.00;36.00;16.10;101529.00;;;;5055752;28;20199;-65
2022/03/11 06:39:14;;;;;;;7.97;5.83;;;17.00;36.00;16.10;101522.00;;;;5056741;28;20036;-65
2022/03/11 06:42:00;;;;;;;7.72;5.57;;;17.00;36.00;16.10;101529.00;;;;5055432;28;20294;-65
2022/03/11 06:44:46;;;;;;;8.93;5.45;;;17.00;36.00;16.10;101543.00;;;;5055480;28;20045;-64
2022/03/11 06:47:33;;;;;;;7.78;5.38;;;17.00;35.90;16.10;101531.00;;;;5051412;28;20078;-65
2022/03/11 06:50:19;;;;;;;7.93;5.45;;;16.90;35.90;16.10;101540.00;;;;5055564;28;20444;-65
2022/03/11 06:53:05;;;;;;;8.18;5.72;;;16.90;35.90;16.10;101541.00;;;;5056206;28;20060;-65
2022/03/11 06:55:53;;;;;;;10.02;6.25;;;16.90;35.90;16.10;101536.00;;;;5053464;28;20417;-65
2022/03/11 06:58:39;;;;;;;9.40;6.38;;;16.90;35.80;16.10;101542.00;;;;5055609;28;20151;-65
2022/03/11 07:01:25;;;;;;;8.90;6.07;;;17.00;35.90;16.10;101532.00;;;;5056444;28;20118;-65
2022/03/11 07:04:11;;;;;;;7.80;5.57;;;16.90;35.80;16.10;101529.00;;;;5054991;28;20113;-65
2022/03/11 07:06:57;;;;;;;9.18;5.85;;;17.00;35.90;16.10;101524.00;;;;5049250;28;20044;-65
2022/03/11 07:09:43;;;;;;;8.85;5.85;;;16.90;35.80;16.10;101530.00;;;;5054099;28;20041;-65
2022/03/11 07:12:31;;;;;;;8.45;6.07;;;17.00;35.80;16.10;101523.00;;;;5051341;28;20040;-65
2022/03/11 07:15:17;;;;;;;9.75;6.05;;;17.00;35.80;16.10;101524.00;;;;5038790;28;20045;-65
2022/03/11 07:18:03;;;;;;;8.23;6.30;;;16.90;35.80;16.10;101523.00;;;;5036488;28;20490;-65
2022/03/11 07:20:49;;;;;;;9.77;6.63;;;17.00;35.90;16.10;101517.00;;;;5057163;28;20362;-65
2022/03/11 07:23:35;;;;;;;9.93;6.45;;;16.90;35.80;16.10;101528.00;;;;5055991;28;20040;-65
2022/03/11 07:26:21;;;;;;;7.95;5.82;;;16.90;35.80;16.10;101523.00;;;;5053549;28;20049;-64
2022/03/11 07:29:07;;;;;;;9.85;5.88;;;16.90;35.80;16.10;101529.00;;;;5052400;28;20159;-65
2022/03/11 07:31:53;;;;;;;9.18;6.38;;;16.90;35.70;16.10;101520.00;;;;5048232;28;20049;-65
2022/03/11 07:34:39;;;;;;;11.95;6.78;;;17.00;35.80;16.10;101518.00;;;;5049541;28;20113;-65
2022/03/11 07:37:26;;;;;;;9.27;6.03;;;17.00;35.80;16.10;101519.00;;;;5052298;28;20055;-65
2022/03/11 07:40:13;;;;;;;10.77;7.15;;;16.90;35.70;16.10;101515.00;;;;5034572;28;20053;-65
2022/03/11 07:42:59;;;;;;;8.57;6.13;;;16.90;35.70;16.10;101524.00;;;;5042339;28;20040;-65
2022/03/11 07:45:46;;;;;;;9.20;6.07;;;17.00;35.80;16.10;101518.00;;;;5046953;28;20064;-65
2022/03/11 07:48:32;;;;;;;11.13;6.72;;;16.90;35.70;16.10;101518.00;;;;5060203;28;20101;-65
2022/03/11 07:51:18;;;;;;;10.02;6.60;;;16.90;35.60;16.10;101519.00;;;;5051762;28;20040;-64
2022/03/11 07:54:04;;;;;;;9.30;6.07;;;16.90;35.60;16.10;101518.00;;;;5037717;28;20183;-65
2022/03/11 07:56:50;;;;;;;9.10;6.07;;;17.00;35.80;16.10;101516.00;;;;5057931;28;20414;-64
2022/03/11 07:59:37;;;;;;;10.60;6.57;;;16.90;35.70;16.10;101512.00;;;;5049480;28;20045;-65
2022/03/11 08:02:23;;;;;;;8.90;6.07;;;16.90;35.70;16.10;101522.00;;;;5057963;28;20059;-65
2022/03/11 08:05:14;;;;;;;9.88;6.65;;;16.90;35.60;16.10;101515.00;;;;5053757;28;20476;-65
2022/03/11 08:08:00;;;;;;;8.65;6.07;;;16.90;35.70;16.10;101511.00;;;;5052797;28;20055;-65
2022/03/11 08:10:46;;;;;;;11.50;7.28;;;16.90;35.70;16.10;101509.00;;;;5053027;28;20037;-65
2022/03/11 08:13:33;;;;;;;12.20;7.38;;;17.00;35.80;16.00;101503.00;;;;5055737;28;20508;-65
2022/03/11 08:16:20;;;;;;;13.13;6.97;;;16.90;35.60;16.00;101502.00;;;;5058639;28;20536;-65
2022/03/11 08:19:07;;;;;;;18.10;7.13;;;16.90;35.50;16.10;101496.00;;;;5034085;28;20428;-65
2022/03/11 08:21:53;;;;;;;19.17;7.93;;;16.90;35.50;16.10;101496.00;;;;5055823;28;20060;-64
2022/03/11 08:24:40;;;;;;;17.50;8.63;;;17.00;35.50;16.10;101504.00;;;;5054592;28;20044;-65
2022/03/11 08:27:26;;;;;;;22.42;9.18;;;16.90;35.20;16.00;101502.00;;;;5036118;28;20386;-65
2022/03/11 08:30:12;;;;;;;28.33;8.85;;;17.00;34.90;16.00;101493.00;;;;5051436;28;20041;-65
2022/03/11 08:32:58;;;;;;;26.00;9.20;;;16.90;35.00;16.00;101500.00;;;;5038011;28;20418;-65
2022/03/11 08:35:44;;;;;;;20.70;9.45;;;16.90;34.90;16.00;101494.00;;;;5051546;28;20048;-65
2022/03/11 08:38:30;;;;;;;26.88;8.80;;;16.90;34.90;16.00;101502.00;;;;5051776;28;20064;-65
2022/03/11 08:41:17;;;;;;;15.60;8.63;;;16.90;35.00;16.00;101503.00;;;;5051933;28;20056;-65
2022/03/11 08:44:05;;;;;;;24.50;9.30;;;16.90;34.90;16.00;101492.00;;;;5039174;28;20044;-65
2022/03/11 08:46:51;;;;;;;21.05;9.18;;;16.90;34.80;16.00;101497.00;;;;5058294;28;20106;-65
2022/03/11 08:49:37;;;;;;;23.58;8.40;;;16.90;34.70;16.00;101495.00;;;;5052585;28;20501;-65
2022/03/11 08:52:27;;;;;;;19.75;9.40;;;16.90;34.70;16.00;101495.00;;;;5047786;28;20036;-65
2022/03/11 08:55:13;;;;;;;22.45;9.63;;;16.90;34.60;16.00;101487.00;;;;5060223;28;20071;-65
2022/03/11 08:57:59;;;;;;;33.65;10.98;;;16.90;34.70;16.00;101491.00;;;;5045235;28;20067;-65
2022/03/11 09:00:45;;;;;;;38.78;10.50;;;16.90;34.20;16.00;101481.00;;;;5053116;28;20044;-65
2022/03/11 09:03:31;;;;;;;31.45;11.30;;;16.90;34.30;16.00;101487.00;;;;5060942;28;20576;-65
2022/03/11 09:06:17;;;;;;;41.08;10.88;;;17.10;33.70;15.90;101480.00;;;;5057693;28;20048;-65
2022/03/11 09:09:04;;;;;;;24.20;10.00;;;16.90;33.70;15.90;101489.00;;;;5059309;28;20036;-65
2022/03/11 09:11:50;;;;;;;33.88;9.65;;;16.90;33.50;15.90;101481.00;;;;5057279;28;20063;-65
2022/03/11 09:14:36;;;;;;;42.80;11.40;;;16.90;33.40;15.90;101480.00;;;;5043047;28;20041;-65
2022/03/11 09:17:22;;;;;;;39.33;10.95;;;16.90;33.50;15.90;101479.00;;;;5058493;28;20041;-65
2022/03/11 09:20:09;;;;;;;40.30;10.30;;;16.90;33.10;15.90;101478.00;;;;5054134;28;20033;-65
2022/03/11 09:22:55;;;;;;;18.15;9.95;;;16.90;33.20;15.90;101483.00;;;;5054846;28;20287;-65
2022/03/11 09:25:41;;;;;;;17.13;9.57;;;16.80;33.00;15.90;101480.00;;;;5051911;28;20044;-65
2022/03/11 09:28:27;;;;;;;23.25;9.93;;;16.90;33.00;15.90;101485.00;;;;5057447;28;20041;-64
2022/03/11 09:31:14;;;;;;;22.30;10.07;;;16.90;32.80;15.90;101481.00;;;;5042245;28;20522;-65
2022/03/11 09:34:00;;;;;;;48.53;14.00;;;16.80;32.80;15.90;101480.00;;;;5055131;28;20051;-65
2022/03/11 09:36:46;;;;;;;56.40;12.55;;;16.90;32.70;15.90;101468.00;;;;5061855;28;20039;-65
2022/03/11 09:39:32;;;;;;;57.40;11.32;;;16.80;32.60;15.90;101473.00;;;;5055379;28;20029;-65
2022/03/11 09:42:18;;;;;;;47.33;10.73;;;16.90;32.70;15.90;101479.00;;;;5045655;28;20047;-65
2022/03/11 09:45:05;;;;;;;38.97;11.93;;;16.90;32.60;15.90;101469.00;;;;5037943;28;20048;-65
2022/03/11 09:47:51;;;;;;;76.55;13.27;;;16.90;32.50;15.90;101464.00;;;;5051527;28;20045;-64
2022/03/11 09:50:37;;;;;;;61.47;12.02;;;16.90;32.40;15.90;101458.00;;;;5056931;28;20068;-65
2022/03/11 09:53:24;;;;;;;81.38;17.98;;;16.90;32.50;15.90;101455.00;;;;5056802;28;20041;-65
2022/03/11 09:56:10;;;;;;;93.72;14.43;;;16.90;32.40;15.90;101436.00;;;;5054584;28;20075;-65
2022/03/11 09:58:56;;;;;;;90.97;17.10;;;16.90;32.10;15.90;101436.00;;;;5042179;28;20045;-65
2022/03/11 10:01:42;;;;;;;129.77;21.05;;;16.90;32.10;15.90;101420.00;;;;5047813;28;20047;-65
2022/03/11 10:04:28;;;;;;;196.32;30.48;;;16.90;32.10;15.90;101423.00;;;;5055367;28;20049;-65
2022/03/11 10:07:28;;;;;;;164.32;25.27;;;16.90;32.10;15.90;101412.00;;;;5055966;28;20044;-64
2022/03/11 10:10:16;;;;;;;109.80;21.02;;;16.90;32.00;15.90;101403.00;;;;5040900;28;20040;-64
2022/03/11 10:13:02;;;;;;;87.05;17.33;;;16.90;32.20;15.90;101402.00;;;;5056448;28;20085;-64
2022/03/11 10:15:49;;;;;;;53.10;12.20;;;16.90;32.20;15.90;101403.00;;;;5056001;28;20100;-65
2022/03/11 10:18:35;;;;;;;56.70;12.68;;;16.90;32.10;15.90;101401.00;;;;5056799;28;20551;-65
2022/03/11 10:21:28;;;;;;;43.85;12.35;;;16.90;32.00;16.00;101402.00;;;;5055253;28;20036;-65
2022/03/11 10:24:18;;;;;;;39.50;10.93;;;16.90;32.00;16.00;101410.00;;;;5038441;28;20041;-64
2022/03/11 10:27:07;;;;;;;31.85;8.80;;;17.00;31.90;16.00;101410.00;;;;5057746;28;20052;-65
2022/03/11 10:30:00;;;;;;;37.00;9.95;;;17.00;32.00;16.00;101399.00;;;;5052631;28;20466;-65
2022/03/11 10:32:56;;;;;;;24.35;9.52;;;17.00;31.70;16.00;101402.00;;;;5029276;28;20059;-65
2022/03/11 10:35:47;;;;;;;14.95;8.13;;;17.00;31.60;16.00;101401.00;;;;5037928;28;20147;-65
2022/03/11 10:38:36;;;;;;;20.48;8.18;;;17.00;31.70;16.00;101390.00;;;;5045565;28;20044;-65
2022/03/11 10:41:30;;;;;;;14.27;7.63;;;17.00;31.50;16.00;101391.00;;;;5052564;28;20498;-65
2022/03/11 10:44:22;;;;;;;34.78;8.70;;;17.00;31.50;16.00;101383.00;;;;5038634;28;20111;-65
2022/03/11 10:47:28;;;;;;;16.67;7.28;;;17.00;31.50;16.00;101387.00;;;;5057424;28;20044;-65
2022/03/11 10:50:16;;;;;;;13.60;7.75;;;17.00;31.60;16.00;101386.00;;;;5042033;28;20045;-65
2022/03/11 10:53:08;;;;;;;14.50;7.57;;;17.00;31.70;16.00;101386.00;;;;5055684;28;20348;-65
2022/03/11 10:55:54;;;;;;;15.77;7.72;;;17.00;31.70;16.00;101380.00;;;;5055242;28;20516;-65
2022/03/11 10:58:40;;;;;;;10.45;7.15;;;17.10;31.80;16.00;101381.00;;;;5032582;28;20089;-64
2022/03/11 11:01:41;;;;;;;11.25;6.75;;;17.00;31.80;16.00;101383.00;;;;5050667;28;20484;-65
2022/03/11 11:04:27;;;;;;;13.05;7.72;;;17.00;31.70;16.00;101380.00;;;;5053268;28;20048;-65
2022/03/11 11:07:13;;;;;;;11.50;7.43;;;17.00;31.80;16.00;101381.00;;;;5053710;28;20052;-64
2022/03/11 11:09:59;;;;;;;10.82;7.13;;;17.10;32.00;16.00;101380.00;;;;5025094;28;20440;-65
2022/03/11 11:12:45;;;;;;;10.20;6.53;;;17.10;32.00;16.00;101389.00;;;;5022716;28;20203;-65
2022/03/11 11:15:32;;;;;;;10.80;7.00;;;17.10;32.00;16.00;101376.00;;;;5022276;28;20041;-65
2022/03/11 11:18:18;;;;;;;10.00;7.40;;;17.10;31.90;16.10;101363.00;;;;5055365;28;20122;-65
2022/03/11 11:21:05;;;;;;;9.93;7.13;;;17.10;31.80;16.00;101366.00;;;;5039048;28;20044;-65
2022/03/11 11:23:56;;;;;;;10.32;6.57;;;17.10;31.70;16.00;101355.00;;;;5029863;28;20071;-64
2022/03/11 11:26:55;;;;;;;8.20;5.97;;;17.10;31.70;16.00;101358.00;;;;5038334;28;20383;-65
2022/03/11 11:29:42;;;;;;;9.95;7.25;;;17.10;31.50;16.00;101360.00;;;;5056147;28;20090;-65
2022/03/11 11:32:29;;;;;;;12.55;6.72;;;17.10;31.60;16.00;101345.00;;;;5039420;28;20061;-64
2022/03/11 11:35:41;;;;;;;9.52;6.65;;;17.10;31.60;16.00;101349.00;;;;5035392;28;20080;-65
2022/03/11 11:38:38;;;;;;;10.77;6.88;;;17.10;31.40;16.00;101350.00;;;;5049568;28;20118;-64
2022/03/11 11:41:26;;;;;;;9.73;6.20;;;17.10;31.40;16.00;101340.00;;;;5044335;28;20041;-65
2022/03/11 11:44:12;;;;;;;8.68;6.03;;;17.10;31.60;16.00;101341.00;;;;5037931;28;21025;-65
2022/03/11 11:47:17;;;;;;;11.93;7.80;;;17.10;31.50;16.00;101348.00;;;;5029678;28;20045;-64
2022/03/11 11:50:14;;;;;;;9.88;6.78;;;17.10;30.60;16.00;101336.00;;;;5041782;28;20463;-65
2022/03/11 11:53:00;;;;;;;10.63;6.72;;;17.10;30.80;16.00;101339.00;;;;5042948;28;20446;-65
2022/03/11 11:55:46;;;;;;;12.23;6.68;;;17.10;30.80;16.00;101337.00;;;;5050847;28;20040;-65
2022/03/11 11:58:32;;;;;;;9.30;7.15;;;17.10;30.80;16.00;101339.00;;;;5028144;28;20037;-64
2022/03/11 12:01:56;;;;;;;10.30;6.93;;;17.10;30.90;16.00;101342.00;;;;5052260;28;20479;-65
2022/03/11 12:04:42;;;;;;;9.05;5.93;;;17.10;30.90;16.00;101338.00;;;;5037124;28;20044;-65
2022/03/11 12:07:48;;;;;;;9.43;6.45;;;17.20;31.10;16.00;101341.00;;;;5053648;28;20044;-64
2022/03/11 12:10:34;;;;;;;9.57;6.13;;;17.10;30.90;16.10;101339.00;;;;5039975;28;20053;-64